sensor_id;sensor_type;location;lat;lon;timestamp;pressure;altitude;pressure_sealevel;temperature;humidity
2681;BME280;1350;42.134;24.708;2023-04-19T09:22:12;98903.47;;;20.68;67.63
2681;BME280;1350;42.134;24.708;2023-04-19T09:24:39;98906.72;;;20.21;66.82
2681;BME280;1350;42.134;24.708;2023-04-19T09:27:06;98904.41;;;20.08;66.91
2681;BME280;1350;42.134;24.708;2023-04-19T09:29:36;98906.97;;;20.09;68.50
2681;BME280;1350;42.134;24.708;2023-04-19T09:32:03;98905.00;;;20.02;68.05
2681;BME280;1350;42.134;24.708;2023-04-19T09:34:30;98895.53;;;20.33;67.40
2681;BME280;1350;42.134;24.708;2023-04-19T09:36:57;98894.66;;;20.25;65.92
2681;BME280;1350;42.134;24.708;2023-04-19T09:39:32;98892.94;;;20.24;66.54
2681;BME280;1350;42.134;24.708;2023-04-19T09:42:00;98899.41;;;20.13;68.43
2681;BME280;1350;42.134;24.708;2023-04-19T09:44:27;98885.47;;;20.35;68.76
2681;BME280;1350;42.134;24.708;2023-04-19T09:46:54;98890.06;;;20.76;67.20
2681;BME280;1350;42.134;24.708;2023-04-19T09:49:21;98884.19;;;20.81;66.11
2681;BME280;1350;42.134;24.708;2023-04-19T09:51:50;98881.56;;;21.38;66.10
2681;BME280;1350;42.134;24.708;2023-04-19T09:54:18;98875.59;;;21.85;64.38
2681;BME280;1350;42.134;24.708;2023-04-19T09:56:47;98874.25;;;22.05;60.84
2681;BME280;1350;42.134;24.708;2023-04-19T09:59:14;98867.16;;;21.96;61.74
2681;BME280;1350;42.134;24.708;2023-04-19T10:01:43;98872.88;;;22.09;58.86
2681;BME280;1350;42.134;24.708;2023-04-19T10:04:10;98865.28;;;22.12;57.30
2681;BME280;1350;42.134;24.708;2023-04-19T10:06:39;98858.19;;;22.19;56.43
2681;BME280;1350;42.134;24.708;2023-04-19T10:09:06;98865.44;;;22.51;57.69
2681;BME280;1350;42.134;24.708;2023-04-19T10:11:36;98862.75;;;22.19;56.94
2681;BME280;1350;42.134;24.708;2023-04-19T10:14:07;98852.06;;;22.41;56.69
2681;BME280;1350;42.134;24.708;2023-04-19T10:16:35;98857.03;;;22.22;56.40
2681;BME280;1350;42.134;24.708;2023-04-19T10:19:03;98851.97;;;22.03;56.93
2681;BME280;1350;42.134;24.708;2023-04-19T10:21:30;98856.34;;;21.80;56.63
2681;BME280;1350;42.134;24.708;2023-04-19T10:23:58;98855.66;;;22.10;56.11
2681;BME280;1350;42.134;24.708;2023-04-19T10:26:25;98837.69;;;22.49;58.10
2681;BME280;1350;42.134;24.708;2023-04-19T10:28:53;98842.66;;;22.84;60.92
2681;BME280;1350;42.134;24.708;2023-04-19T10:31:24;98845.56;;;22.74;54.31
2681;BME280;1350;42.134;24.708;2023-04-19T10:33:51;98838.41;;;22.43;54.96
2681;BME280;1350;42.134;24.708;2023-04-19T10:36:19;98833.44;;;22.70;52.25
2681;BME280;1350;42.134;24.708;2023-04-19T10:38:47;98835.47;;;22.68;53.09
2681;BME280;1350;42.134;24.708;2023-04-19T10:41:17;98829.28;;;22.36;51.55
2681;BME280;1350;42.134;24.708;2023-04-19T10:43:45;98832.13;;;22.58;51.17
2681;BME280;1350;42.134;24.708;2023-04-19T10:46:14;98832.03;;;22.20;52.78
2681;BME280;1350;42.134;24.708;2023-04-19T10:48:50;98822.25;;;22.11;53.25
2681;BME280;1350;42.134;24.708;2023-04-19T10:51:22;98822.72;;;22.14;53.58
2681;BME280;1350;42.134;24.708;2023-04-19T10:53:57;98818.72;;;22.02;53.33
2681;BME280;1350;42.134;24.708;2023-04-19T10:56:57;98822.91;;;21.48;55.49
2681;BME280;1350;42.134;24.708;2023-04-19T10:59:25;98824.91;;;21.30;55.13
2681;BME280;1350;42.134;24.708;2023-04-19T11:01:54;98823.47;;;21.02;56.74
2681;BME280;1350;42.134;24.708;2023-04-19T11:04:56;98821.50;;;21.12;55.60
2681;BME280;1350;42.134;24.708;2023-04-19T11:07:11;98821.53;;;21.28;54.89
2681;BME280;1350;42.134;24.708;2023-04-19T11:09:39;98819.69;;;21.53;55.36
2681;BME280;1350;42.134;24.708;2023-04-19T11:12:11;98825.63;;;21.64;54.66
2681;BME280;1350;42.134;24.708;2023-04-19T11:14:39;98810.25;;;21.65;54.75
2681;BME280;1350;42.134;24.708;2023-04-19T11:17:13;98820.91;;;21.58;54.09
2681;BME280;1350;42.134;24.708;2023-04-19T11:19:43;98817.19;;;21.92;53.61
2681;BME280;1350;42.134;24.708;2023-04-19T11:22:11;98806.66;;;22.37;53.34
2681;BME280;1350;42.134;24.708;2023-04-19T11:24:37;98802.84;;;22.70;52.68
2681;BME280;1350;42.134;24.708;2023-04-19T11:27:10;98805.31;;;22.87;50.42
2681;BME280;1350;42.134;24.708;2023-04-19T11:29:36;98808.28;;;22.62;48.90
2681;BME280;1350;42.134;24.708;2023-04-19T11:32:04;98803.88;;;21.74;51.42
2681;BME280;1350;42.134;24.708;2023-04-19T11:34:34;98805.38;;;21.52;51.82
2681;BME280;1350;42.134;24.708;2023-04-19T11:37:03;98796.97;;;21.88;51.07
2681;BME280;1350;42.134;24.708;2023-04-19T11:39:29;98797.25;;;22.17;51.23
2681;BME280;1350;42.134;24.708;2023-04-19T11:41:56;98793.75;;;22.71;52.37
2681;BME280;1350;42.134;24.708;2023-04-19T11:44:24;98799.97;;;23.02;51.25
2681;BME280;1350;42.134;24.708;2023-04-19T11:46:58;98797.44;;;22.70;49.68
2681;BME280;1350;42.134;24.708;2023-04-19T11:49:26;98800.66;;;22.11;50.80
2681;BME280;1350;42.134;24.708;2023-04-19T11:51:55;98807.75;;;21.55;51.00
2681;BME280;1350;42.134;24.708;2023-04-19T11:54:24;98800.66;;;21.87;50.36
2681;BME280;1350;42.134;24.708;2023-04-19T11:57:01;98812.84;;;21.91;51.07
2681;BME280;1350;42.134;24.708;2023-04-19T11:59:29;98810.25;;;21.49;52.20
2681;BME280;1350;42.134;24.708;2023-04-19T12:02:04;98807.41;;;20.93;54.63
2681;BME280;1350;42.134;24.708;2023-04-19T12:04:31;98804.34;;;20.38;55.96
2681;BME280;1350;42.134;24.708;2023-04-19T12:06:59;98800.34;;;19.73;57.80
2681;BME280;1350;42.134;24.708;2023-04-19T12:09:28;98800.22;;;19.05;60.56
2681;BME280;1350;42.134;24.708;2023-04-19T12:11:55;98808.03;;;18.98;62.82
2681;BME280;1350;42.134;24.708;2023-04-19T12:14:23;98804.63;;;19.41;63.13
2681;BME280;1350;42.134;24.708;2023-04-19T12:17:07;98808.75;;;19.53;62.97
2681;BME280;1350;42.134;24.708;2023-04-19T12:19:36;98818.63;;;18.45;75.05
2681;BME280;1350;42.134;24.708;2023-04-19T12:22:11;98815.56;;;17.75;88.59
2681;BME280;1350;42.134;24.708;2023-04-19T12:24:39;98800.59;;;17.25;96.21
2681;BME280;1350;42.134;24.708;2023-04-19T12:27:07;98823.03;;;17.15;100.00
2681;BME280;1350;42.134;24.708;2023-04-19T12:29:34;98818.09;;;16.91;100.00
2681;BME280;1350;42.134;24.708;2023-04-19T12:32:01;98811.75;;;17.11;100.00
2681;BME280;1350;42.134;24.708;2023-04-19T12:34:28;98808.66;;;17.16;100.00
2681;BME280;1350;42.134;24.708;2023-04-19T12:36:55;98806.81;;;17.16;100.00
2681;BME280;1350;42.134;24.708;2023-04-19T12:39:22;98789.88;;;17.35;100.00
2681;BME280;1350;42.134;24.708;2023-04-19T12:41:51;98793.28;;;17.18;100.00
2681;BME280;1350;42.134;24.708;2023-04-19T12:44:17;98802.75;;;17.22;100.00
2681;BME280;1350;42.134;24.708;2023-04-19T12:46:44;98803.44;;;17.14;100.00
2681;BME280;1350;42.134;24.708;2023-04-19T12:49:11;98810.31;;;16.88;100.00
2681;BME280;1350;42.134;24.708;2023-04-19T12:51:38;98805.69;;;17.00;100.00
2681;BME280;1350;42.134;24.708;2023-04-19T12:54:06;98817.53;;;17.26;100.00
2681;BME280;1350;42.134;24.708;2023-04-19T12:56:33;98817.69;;;17.24;100.00
2681;BME280;1350;42.134;24.708;2023-04-19T12:59:01;98817.88;;;16.73;100.00
2681;BME280;1350;42.134;24.708;2023-04-19T13:01:28;98807.78;;;16.87;100.00
2681;BME280;1350;42.134;24.708;2023-04-19T13:03:54;98812.00;;;16.89;100.00
2681;BME280;1350;42.134;24.708;2023-04-19T13:06:21;98831.97;;;16.66;100.00
2681;BME280;1350;42.134;24.708;2023-04-19T13:08:48;98824.38;;;16.11;100.00
2681;BME280;1350;42.134;24.708;2023-04-19T13:11:15;98827.41;;;15.97;100.00
2681;BME280;1350;42.134;24.708;2023-04-19T13:13:48;98827.19;;;16.09;100.00
2681;BME280;1350;42.134;24.708;2023-04-19T13:16:16;98824.84;;;16.25;100.00
2681;BME280;1350;42.134;24.708;2023-04-19T13:18:42;98833.75;;;16.56;100.00
2681;BME280;1350;42.134;24.708;2023-04-19T13:21:09;98828.78;;;16.91;100.00
2681;BME280;1350;42.134;24.708;2023-04-19T13:23:36;98829.06;;;16.98;100.00
2681;BME280;1350;42.134;24.708;2023-04-19T13:26:03;98831.22;;;16.54;100.00
2681;BME280;1350;42.134;24.708;2023-04-19T13:28:29;98817.81;;;16.45;100.00
2681;BME280;1350;42.134;24.708;2023-04-19T13:30:56;98810.59;;;16.15;100.00
2681;BME280;1350;42.134;24.708;2023-04-19T13:33:24;98808.88;;;16.05;100.00
2681;BME280;1350;42.134;24.708;2023-04-19T13:35:51;98810.28;;;16.09;100.00
2681;BME280;1350;42.134;24.708;2023-04-19T13:38:18;98793.19;;;15.91;100.00
2681;BME280;1350;42.134;24.708;2023-04-19T13:40:44;98797.94;;;15.87;100.00
2681;BME280;1350;42.134;24.708;2023-04-19T13:43:11;98803.88;;;15.91;100.00
2681;BME280;1350;42.134;24.708;2023-04-19T13:45:38;98800.69;;;15.76;100.00
2681;BME280;1350;42.134;24.708;2023-04-19T13:48:05;98800.03;;;15.63;100.00
2681;BME280;1350;42.134;24.708;2023-04-19T13:50:33;98800.47;;;15.89;100.00
2681;BME280;1350;42.134;24.708;2023-04-19T13:53:00;98812.22;;;15.97;100.00
2681;BME280;1350;42.134;24.708;2023-04-19T13:55:27;98813.56;;;16.12;100.00
2681;BME280;1350;42.134;24.708;2023-04-19T13:57:53;98823.47;;;16.01;100.00
2681;BME280;1350;42.134;24.708;2023-04-19T14:00:20;98824.16;;;16.23;100.00
2681;BME280;1350;42.134;24.708;2023-04-19T14:02:47;98817.16;;;16.32;100.00
2681;BME280;1350;42.134;24.708;2023-04-19T14:05:14;98829.84;;;16.39;100.00
2681;BME280;1350;42.134;24.708;2023-04-19T14:07:42;98832.59;;;16.19;100.00
2681;BME280;1350;42.134;24.708;2023-04-19T14:10:10;98823.13;;;16.15;100.00
2681;BME280;1350;42.134;24.708;2023-04-19T14:12:37;98819.66;;;16.24;100.00
2681;BME280;1350;42.134;24.708;2023-04-19T14:15:04;98819.31;;;16.08;100.00
2681;BME280;1350;42.134;24.708;2023-04-19T14:17:31;98823.06;;;16.05;100.00
2681;BME280;1350;42.134;24.708;2023-04-19T14:20:00;98818.00;;;16.02;100.00
2681;BME280;1350;42.134;24.708;2023-04-19T14:22:27;98823.72;;;15.98;100.00
2681;BME280;1350;42.134;24.708;2023-04-19T14:24:55;98829.53;;;16.03;100.00
2681;BME280;1350;42.134;24.708;2023-04-19T14:27:21;98813.38;;;15.84;100.00
2681;BME280;1350;42.134;24.708;2023-04-19T14:29:48;98834.56;;;15.96;100.00
2681;BME280;1350;42.134;24.708;2023-04-19T14:32:15;98825.06;;;15.83;100.00
2681;BME280;1350;42.134;24.708;2023-04-19T14:34:42;98826.19;;;15.80;100.00
2681;BME280;1350;42.134;24.708;2023-04-19T14:37:08;98829.69;;;15.81;100.00
2681;BME280;1350;42.134;24.708;2023-04-19T14:39:35;98827.47;;;15.86;100.00
2681;BME280;1350;42.134;24.708;2023-04-19T14:42:03;98832.41;;;15.90;100.00
2681;BME280;1350;42.134;24.708;2023-04-19T14:44:30;98829.88;;;15.89;100.00
2681;BME280;1350;42.134;24.708;2023-04-19T14:46:57;98827.81;;;15.92;100.00
2681;BME280;1350;42.134;24.708;2023-04-19T14:49:24;98836.91;;;16.10;100.00
2681;BME280;1350;42.134;24.708;2023-04-19T14:51:51;98845.84;;;16.00;100.00
2681;BME280;1350;42.134;24.708;2023-04-19T14:54:18;98841.94;;;16.04;100.00
2681;BME280;1350;42.134;24.708;2023-04-19T14:56:45;98843.38;;;16.08;100.00
2681;BME280;1350;42.134;24.708;2023-04-19T14:59:13;98832.28;;;15.92;100.00
2681;BME280;1350;42.134;24.708;2023-04-19T15:01:40;98851.84;;;16.13;100.00
2681;BME280;1350;42.134;24.708;2023-04-19T15:04:06;98839.72;;;16.09;100.00
2681;BME280;1350;42.134;24.708;2023-04-19T15:06:33;98831.72;;;15.88;100.00
2681;BME280;1350;42.134;24.708;2023-04-19T15:09:00;98832.28;;;15.92;100.00
2681;BME280;1350;42.134;24.708;2023-04-19T15:11:26;98834.97;;;15.92;100.00
2681;BME280;1350;42.134;24.708;2023-04-19T15:13:53;98845.84;;;15.79;100.00
2681;BME280;1350;42.134;24.708;2023-04-19T15:16:21;98838.88;;;15.67;100.00
2681;BME280;1350;42.134;24.708;2023-04-19T15:18:48;98841.38;;;15.80;100.00
2681;BME280;1350;42.134;24.708;2023-04-19T15:21:17;98839.22;;;15.94;100.00
2681;BME280;1350;42.134;24.708;2023-04-19T15:23:44;98843.56;;;15.75;100.00
2681;BME280;1350;42.134;24.708;2023-04-19T15:26:11;98835.81;;;15.72;100.00
2681;BME280;1350;42.134;24.708;2023-04-19T15:28:38;98831.41;;;15.82;100.00
2681;BME280;1350;42.134;24.708;2023-04-19T15:31:06;98841.97;;;15.83;100.00
2681;BME280;1350;42.134;24.708;2023-04-19T15:33:35;98834.13;;;15.71;100.00
2681;BME280;1350;42.134;24.708;2023-04-19T15:36:02;98835.28;;;15.78;100.00
2681;BME280;1350;42.134;24.708;2023-04-19T15:38:30;98841.56;;;15.67;100.00
2681;BME280;1350;42.134;24.708;2023-04-19T15:40:58;98850.16;;;15.71;100.00
2681;BME280;1350;42.134;24.708;2023-04-19T15:43:25;98841.94;;;15.63;100.00
2681;BME280;1350;42.134;24.708;2023-04-19T15:45:51;98837.13;;;15.57;100.00
2681;BME280;1350;42.134;24.708;2023-04-19T15:48:18;98845.47;;;15.63;100.00
2681;BME280;1350;42.134;24.708;2023-04-19T15:50:47;98837.19;;;15.66;100.00
2681;BME280;1350;42.134;24.708;2023-04-19T15:53:14;98845.00;;;15.58;100.00
2681;BME280;1350;42.134;24.708;2023-04-19T15:55:40;98836.13;;;15.58;100.00
2681;BME280;1350;42.134;24.708;2023-04-19T15:58:08;98833.59;;;15.56;100.00
2681;BME280;1350;42.134;24.708;2023-04-19T16:00:35;98840.56;;;15.48;100.00
2681;BME280;1350;42.134;24.708;2023-04-19T16:03:01;98836.66;;;15.52;100.00
2681;BME280;1350;42.134;24.708;2023-04-19T16:05:28;98842.47;;;15.57;100.00
2681;BME280;1350;42.134;24.708;2023-04-19T16:08:04;98846.78;;;15.37;100.00
2681;BME280;1350;42.134;24.708;2023-04-19T16:10:31;98853.34;;;15.44;100.00
2681;BME280;1350;42.134;24.708;2023-04-19T16:12:57;98851.53;;;15.45;100.00
2681;BME280;1350;42.134;24.708;2023-04-19T16:15:24;98841.94;;;15.42;100.00
2681;BME280;1350;42.134;24.708;2023-04-19T16:17:51;98855.97;;;15.55;100.00
2681;BME280;1350;42.134;24.708;2023-04-19T16:20:18;98856.63;;;15.68;100.00
2681;BME280;1350;42.134;24.708;2023-04-19T16:22:45;98860.78;;;15.61;100.00
2681;BME280;1350;42.134;24.708;2023-04-19T16:25:14;98860.06;;;15.80;100.00
2681;BME280;1350;42.134;24.708;2023-04-19T16:27:43;98862.50;;;15.83;100.00
2681;BME280;1350;42.134;24.708;2023-04-19T16:30:10;98868.75;;;15.72;100.00
2681;BME280;1350;42.134;24.708;2023-04-19T16:32:37;98858.59;;;15.66;100.00
2681;BME280;1350;42.134;24.708;2023-04-19T16:35:05;98866.84;;;15.63;100.00
2681;BME280;1350;42.134;24.708;2023-04-19T16:37:32;98865.34;;;15.50;100.00
2681;BME280;1350;42.134;24.708;2023-04-19T16:40:02;98875.78;;;15.53;100.00
2681;BME280;1350;42.134;24.708;2023-04-19T16:42:30;98861.31;;;15.55;100.00
2681;BME280;1350;42.134;24.708;2023-04-19T16:44:57;98872.75;;;15.46;100.00
2681;BME280;1350;42.134;24.708;2023-04-19T16:47:27;98867.50;;;15.56;100.00
2681;BME280;1350;42.134;24.708;2023-04-19T16:49:55;98866.13;;;15.41;100.00
2681;BME280;1350;42.134;24.708;2023-04-19T16:52:23;98871.56;;;15.39;100.00
2681;BME280;1350;42.134;24.708;2023-04-19T16:54:49;98876.91;;;15.39;100.00
2681;BME280;1350;42.134;24.708;2023-04-19T16:57:16;98879.09;;;15.45;100.00
2681;BME280;1350;42.134;24.708;2023-04-19T16:59:50;98890.44;;;15.58;100.00
2681;BME280;1350;42.134;24.708;2023-04-19T17:02:17;98901.34;;;15.66;100.00
2681;BME280;1350;42.134;24.708;2023-04-19T17:04:44;98898.53;;;15.68;100.00
2681;BME280;1350;42.134;24.708;2023-04-19T17:07:11;98902.06;;;15.68;100.00
2681;BME280;1350;42.134;24.708;2023-04-19T17:09:38;98903.63;;;15.71;100.00
2681;BME280;1350;42.134;24.708;2023-04-19T17:12:05;98907.41;;;15.68;100.00
2681;BME280;1350;42.134;24.708;2023-04-19T17:14:33;98919.44;;;15.63;100.00
2681;BME280;1350;42.134;24.708;2023-04-19T17:17:01;98918.09;;;15.68;100.00
2681;BME280;1350;42.134;24.708;2023-04-19T17:19:28;98928.72;;;15.79;100.00
2681;BME280;1350;42.134;24.708;2023-04-19T17:21:55;98929.59;;;15.80;100.00
2681;BME280;1350;42.134;24.708;2023-04-19T17:24:23;98930.66;;;15.88;100.00
2681;BME280;1350;42.134;24.708;2023-04-19T17:26:50;98932.22;;;15.91;100.00
2681;BME280;1350;42.134;24.708;2023-04-19T17:29:16;98934.63;;;15.94;100.00
2681;BME280;1350;42.134;24.708;2023-04-19T17:31:47;98937.69;;;15.89;100.00
2681;BME280;1350;42.134;24.708;2023-04-19T17:34:15;98945.75;;;15.78;100.00
2681;BME280;1350;42.134;24.708;2023-04-19T17:36:42;98948.44;;;15.78;100.00
2681;BME280;1350;42.134;24.708;2023-04-19T17:39:09;98961.16;;;15.86;100.00
2681;BME280;1350;42.134;24.708;2023-04-19T17:41:36;98964.56;;;15.88;100.00
2681;BME280;1350;42.134;24.708;2023-04-19T17:44:03;98959.22;;;15.88;100.00
2681;BME280;1350;42.134;24.708;2023-04-19T17:46:30;98968.31;;;15.85;100.00
2681;BME280;1350;42.134;24.708;2023-04-19T17:48:56;98970.28;;;15.83;100.00
2681;BME280;1350;42.134;24.708;2023-04-19T17:51:24;98985.69;;;15.91;100.00
2681;BME280;1350;42.134;24.708;2023-04-19T17:53:51;98995.56;;;15.79;100.00
2681;BME280;1350;42.134;24.708;2023-04-19T17:56:18;98984.84;;;15.48;100.00
2681;BME280;1350;42.134;24.708;2023-04-19T17:58:45;98994.22;;;15.42;100.00
2681;BME280;1350;42.134;24.708;2023-04-19T18:01:11;99000.63;;;15.28;100.00
2681;BME280;1350;42.134;24.708;2023-04-19T18:03:39;99000.94;;;15.03;100.00
2681;BME280;1350;42.134;24.708;2023-04-19T18:06:07;99013.03;;;14.96;100.00
2681;BME280;1350;42.134;24.708;2023-04-19T18:08:35;99017.19;;;15.00;100.00
2681;BME280;1350;42.134;24.708;2023-04-19T18:11:02;99021.06;;;15.07;100.00
2681;BME280;1350;42.134;24.708;2023-04-19T18:13:28;99026.88;;;15.01;100.00
2681;BME280;1350;42.134;24.708;2023-04-19T18:15:55;99022.03;;;14.84;100.00
2681;BME280;1350;42.134;24.708;2023-04-19T18:18:22;99027.72;;;14.69;100.00
2681;BME280;1350;42.134;24.708;2023-04-19T18:20:49;99028.31;;;14.72;100.00
2681;BME280;1350;42.134;24.708;2023-04-19T18:23:15;99039.50;;;14.77;100.00
2681;BME280;1350;42.134;24.708;2023-04-19T18:25:51;99035.59;;;14.81;100.00
2681;BME280;1350;42.134;24.708;2023-04-19T18:28:18;99041.03;;;14.69;100.00
2681;BME280;1350;42.134;24.708;2023-04-19T18:30:44;99042.38;;;14.63;100.00
2681;BME280;1350;42.134;24.708;2023-04-19T18:33:11;99046.41;;;14.80;100.00
2681;BME280;1350;42.134;24.708;2023-04-19T18:35:38;99045.78;;;14.76;100.00
2681;BME280;1350;42.134;24.708;2023-04-19T18:38:05;99052.47;;;14.82;100.00
2681;BME280;1350;42.134;24.708;2023-04-19T18:40:32;99046.56;;;15.00;100.00
2681;BME280;1350;42.134;24.708;2023-04-19T18:43:00;99053.69;;;14.89;100.00
2681;BME280;1350;42.134;24.708;2023-04-19T18:45:28;99041.78;;;14.71;100.00
2681;BME280;1350;42.134;24.708;2023-04-19T18:47:55;99049.78;;;14.71;100.00
2681;BME280;1350;42.134;24.708;2023-04-19T18:50:22;99044.31;;;14.61;100.00
2681;BME280;1350;42.134;24.708;2023-04-19T18:52:49;99044.63;;;14.46;100.00
2681;BME280;1350;42.134;24.708;2023-04-19T18:55:15;99040.13;;;14.35;100.00
2681;BME280;1350;42.134;24.708;2023-04-19T18:57:42;99039.22;;;14.24;100.00
2681;BME280;1350;42.134;24.708;2023-04-19T19:00:11;99037.09;;;14.16;100.00
2681;BME280;1350;42.134;24.708;2023-04-19T19:02:38;99040.00;;;14.13;100.00
2681;BME280;1350;42.134;24.708;2023-04-19T19:05:07;99039.06;;;14.14;100.00
2681;BME280;1350;42.134;24.708;2023-04-19T19:07:42;99042.06;;;14.10;100.00
2681;BME280;1350;42.134;24.708;2023-04-19T19:10:09;99037.84;;;14.18;100.00
2681;BME280;1350;42.134;24.708;2023-04-19T19:12:36;99047.19;;;14.13;100.00
2681;BME280;1350;42.134;24.708;2023-04-19T19:15:05;99043.03;;;14.09;100.00
2681;BME280;1350;42.134;24.708;2023-04-19T19:17:33;99035.88;;;14.09;100.00
2681;BME280;1350;42.134;24.708;2023-04-19T19:20:00;99040.97;;;14.12;100.00
2681;BME280;1350;42.134;24.708;2023-04-19T19:22:27;99046.56;;;14.09;100.00
2681;BME280;1350;42.134;24.708;2023-04-19T19:24:53;99043.38;;;14.04;100.00
2681;BME280;1350;42.134;24.708;2023-04-19T19:27:20;99041.78;;;14.02;100.00
2681;BME280;1350;42.134;24.708;2023-04-19T19:29:47;99052.34;;;14.03;100.00
2681;BME280;1350;42.134;24.708;2023-04-19T19:32:14;99048.00;;;14.02;100.00
2681;BME280;1350;42.134;24.708;2023-04-19T19:34:42;99048.59;;;14.06;100.00
2681;BME280;1350;42.134;24.708;2023-04-19T19:37:09;99048.00;;;14.02;100.00
2681;BME280;1350;42.134;24.708;2023-04-19T19:39:36;99041.69;;;14.03;100.00
2681;BME280;1350;42.134;24.708;2023-04-19T19:42:03;99043.09;;;13.96;100.00
2681;BME280;1350;42.134;24.708;2023-04-19T19:44:30;99047.34;;;13.99;100.00
2681;BME280;1350;42.134;24.708;2023-04-19T19:46:57;99045.44;;;14.01;100.00
2681;BME280;1350;42.134;24.708;2023-04-19T19:49:23;99039.38;;;13.99;100.00
2681;BME280;1350;42.134;24.708;2023-04-19T19:51:52;99037.97;;;13.93;100.00
2681;BME280;1350;42.134;24.708;2023-04-19T19:54:18;99042.59;;;13.91;100.00
2681;BME280;1350;42.134;24.708;2023-04-19T19:56:45;99039.69;;;13.94;100.00
2681;BME280;1350;42.134;24.708;2023-04-19T19:59:12;99045.69;;;14.09;100.00
2681;BME280;1350;42.134;24.708;2023-04-19T20:01:38;99036.66;;;14.22;100.00
2681;BME280;1350;42.134;24.708;2023-04-19T20:04:05;99047.03;;;14.38;100.00
2681;BME280;1350;42.134;24.708;2023-04-19T20:06:32;99052.59;;;14.35;100.00
2681;BME280;1350;42.134;24.708;2023-04-19T20:09:00;99054.31;;;14.36;100.00
2681;BME280;1350;42.134;24.708;2023-04-19T20:11:27;99052.38;;;14.38;100.00
2681;BME280;1350;42.134;24.708;2023-04-19T20:13:53;99047.91;;;14.38;100.00
2681;BME280;1350;42.134;24.708;2023-04-19T20:16:20;99052.88;;;14.43;100.00
2681;BME280;1350;42.134;24.708;2023-04-19T20:18:47;99052.63;;;14.46;100.00
2681;BME280;1350;42.134;24.708;2023-04-19T20:21:14;99048.44;;;14.54;100.00
2681;BME280;1350;42.134;24.708;2023-04-19T20:23:41;99047.19;;;14.47;100.00
2681;BME280;1350;42.134;24.708;2023-04-19T20:26:09;99046.25;;;14.59;100.00
2681;BME280;1350;42.134;24.708;2023-04-19T20:28:35;99050.03;;;14.68;100.00
2681;BME280;1350;42.134;24.708;2023-04-19T20:31:02;99047.84;;;14.62;100.00
2681;BME280;1350;42.134;24.708;2023-04-19T20:33:29;99051.47;;;14.72;100.00
2681;BME280;1350;42.134;24.708;2023-04-19T20:35:56;99044.09;;;14.75;100.00
2681;BME280;1350;42.134;24.708;2023-04-19T20:38:24;99052.59;;;14.69;100.00
2681;BME280;1350;42.134;24.708;2023-04-19T20:40:50;99052.34;;;14.72;100.00
2681;BME280;1350;42.134;24.708;2023-04-19T20:43:19;99053.69;;;14.32;100.00
2681;BME280;1350;42.134;24.708;2023-04-19T20:45:46;99057.94;;;14.35;100.00
2681;BME280;1350;42.134;24.708;2023-04-19T20:48:12;99054.25;;;14.48;100.00
2681;BME280;1350;42.134;24.708;2023-04-19T20:50:40;99054.56;;;14.44;100.00
2681;BME280;1350;42.134;24.708;2023-04-19T20:53:08;99053.22;;;14.15;100.00
2681;BME280;1350;42.134;24.708;2023-04-19T20:55:34;99051.63;;;14.25;100.00
2681;BME280;1350;42.134;24.708;2023-04-19T20:58:02;99057.09;;;14.34;100.00
2681;BME280;1350;42.134;24.708;2023-04-19T21:00:30;99053.84;;;14.42;100.00
2681;BME280;1350;42.134;24.708;2023-04-19T21:02:57;99051.66;;;14.47;100.00
2681;BME280;1350;42.134;24.708;2023-04-19T21:05:24;99056.16;;;14.46;100.00
2681;BME280;1350;42.134;24.708;2023-04-19T21:07:51;99052.88;;;14.43;100.00
2681;BME280;1350;42.134;24.708;2023-04-19T21:10:18;99050.59;;;14.49;100.00
2681;BME280;1350;42.134;24.708;2023-04-19T21:12:46;99048.88;;;14.37;100.00
2681;BME280;1350;42.134;24.708;2023-04-19T21:15:13;99045.19;;;14.27;100.00
2681;BME280;1350;42.134;24.708;2023-04-19T21:17:41;99049.03;;;14.23;100.00
2681;BME280;1350;42.134;24.708;2023-04-19T21:20:09;99050.94;;;14.21;100.00
2681;BME280;1350;42.134;24.708;2023-04-19T21:22:38;99056.00;;;14.13;100.00
2681;BME280;1350;42.134;24.708;2023-04-19T21:25:06;99052.34;;;14.03;100.00
2681;BME280;1350;42.134;24.708;2023-04-19T21:27:33;99051.59;;;14.01;100.00
2681;BME280;1350;42.134;24.708;2023-04-19T21:30:01;99049.78;;;14.02;100.00
2681;BME280;1350;42.134;24.708;2023-04-19T21:32:27;99052.97;;;14.07;100.00
2681;BME280;1350;42.134;24.708;2023-04-19T21:34:58;99062.72;;;14.19;100.00
2681;BME280;1350;42.134;24.708;2023-04-19T21:37:25;99055.28;;;14.11;100.00
2681;BME280;1350;42.134;24.708;2023-04-19T21:39:52;99051.47;;;14.03;100.00
2681;BME280;1350;42.134;24.708;2023-04-19T21:42:19;99052.06;;;13.95;100.00
2681;BME280;1350;42.134;24.708;2023-04-19T21:44:46;99057.38;;;13.95;100.00
2681;BME280;1350;42.134;24.708;2023-04-19T21:47:13;99058.69;;;13.90;100.00
2681;BME280;1350;42.134;24.708;2023-04-19T21:49:40;99061.03;;;13.94;100.00
2681;BME280;1350;42.134;24.708;2023-04-19T21:52:08;99053.16;;;13.93;100.00
2681;BME280;1350;42.134;24.708;2023-04-19T21:54:35;99054.59;;;13.97;100.00
2681;BME280;1350;42.134;24.708;2023-04-19T21:57:01;99054.84;;;13.94;100.00
2681;BME280;1350;42.134;24.708;2023-04-19T21:59:28;99052.50;;;13.89;100.00
2681;BME280;1350;42.134;24.708;2023-04-19T22:01:55;99057.97;;;13.88;100.00
2681;BME280;1350;42.134;24.708;2023-04-19T22:04:23;99047.53;;;13.85;100.00
2681;BME280;1350;42.134;24.708;2023-04-19T22:06:50;99058.69;;;13.90;100.00
2681;BME280;1350;42.134;24.708;2023-04-19T22:09:19;99052.16;;;13.94;100.00
2681;BME280;1350;42.134;24.708;2023-04-19T22:11:46;99057.63;;;13.92;100.00
2681;BME280;1350;42.134;24.708;2023-04-19T22:14:14;99056.50;;;13.84;100.00
2681;BME280;1350;42.134;24.708;2023-04-19T22:16:42;99060.34;;;13.80;100.00
2681;BME280;1350;42.134;24.708;2023-04-19T22:19:08;99059.81;;;13.75;100.00
2681;BME280;1350;42.134;24.708;2023-04-19T22:21:35;99057.38;;;13.72;100.00
2681;BME280;1350;42.134;24.708;2023-04-19T22:24:02;99054.09;;;13.68;100.00
2681;BME280;1350;42.134;24.708;2023-04-19T22:26:31;99051.22;;;13.71;100.00